Time;durP1;ratioP1;P1;durP2;ratioP2;P2;SDS_P1;SDS_P2;PMS_P1;PMS_P2;Temp;Humidity;BMP_temperature;BMP_pressure;BME280_temperature;BME280_humidity;BME280_pressure;Samples;Min_cycle;Max_cycle;Signal;HPM_P1;HPM_P2
2022/01/29 00:02:03;;;;;;;34.75;19.13;;;7.30;99.90;;;;;;4987181;28;20046;-72
2022/01/29 00:04:29;;;;;;;36.45;20.48;;;7.10;99.90;;;;;;5005919;28;20297;-72
2022/01/29 00:06:54;;;;;;;29.08;18.48;;;7.20;99.90;;;;;;4974987;28;20041;-72
2022/01/29 00:09:20;;;;;;;35.55;17.42;;;7.30;99.90;;;;;;4985379;28;20042;-72
2022/01/29 00:11:46;;;;;;;35.83;17.50;;;7.40;99.90;;;;;;4969589;28;20038;-72
2022/01/29 00:14:11;;;;;;;30.05;17.20;;;7.10;99.90;;;;;;4992201;28;20390;-72
2022/01/29 00:16:38;;;;;;;44.15;19.90;;;7.50;99.90;;;;;;4986117;28;20061;-72
2022/01/29 00:19:04;;;;;;;37.35;20.30;;;7.10;99.90;;;;;;4969376;28;20048;-72
2022/01/29 00:21:30;;;;;;;35.17;18.77;;;7.10;99.90;;;;;;4983176;28;20034;-72
2022/01/29 00:23:55;;;;;;;35.55;19.90;;;7.30;99.90;;;;;;4983258;28;20550;-72
2022/01/29 00:26:23;;;;;;;31.73;19.45;;;7.10;99.90;;;;;;4978996;28;20038;-72
2022/01/29 00:28:51;;;;;;;42.42;22.60;;;6.90;99.90;;;;;;4966966;28;20073;-72
2022/01/29 00:31:17;;;;;;;36.38;20.48;;;7.20;99.90;;;;;;4984046;28;20168;-72
2022/01/29 00:33:43;;;;;;;37.47;21.08;;;7.00;99.90;;;;;;4982705;28;20045;-72
2022/01/29 00:36:08;;;;;;;43.67;22.88;;;7.10;99.90;;;;;;4974952;28;20029;-72
2022/01/29 00:38:35;;;;;;;39.70;22.15;;;7.50;99.90;;;;;;4987403;28;20042;-72
2022/01/29 00:41:02;;;;;;;33.90;18.85;;;7.00;99.90;;;;;;4991013;28;20065;-72
2022/01/29 00:43:28;;;;;;;40.47;24.20;;;7.10;99.90;;;;;;4989151;28;20045;-72
2022/01/29 00:45:54;;;;;;;40.67;25.38;;;7.20;99.90;;;;;;4985965;28;20056;-72
2022/01/29 00:48:19;;;;;;;37.08;19.85;;;7.40;99.90;;;;;;4993949;28;20418;-72
2022/01/29 00:50:45;;;;;;;42.90;25.88;;;7.00;99.90;;;;;;4996655;28;20038;-72
2022/01/29 00:53:11;;;;;;;39.53;23.13;;;7.30;99.90;;;;;;4986409;28;20045;-72
2022/01/29 00:55:37;;;;;;;39.33;22.23;;;7.20;99.90;;;;;;4988464;28;20663;-72
2022/01/29 00:58:03;;;;;;;31.25;17.50;;;7.00;99.90;;;;;;5004037;28;20049;-72
2022/01/29 01:00:28;;;;;;;38.97;22.25;;;6.90;99.90;;;;;;4989124;28;20402;-72
2022/01/29 01:02:54;;;;;;;39.40;23.38;;;6.80;99.90;;;;;;4991613;28;20393;-72
2022/01/29 01:05:20;;;;;;;37.63;21.58;;;7.30;99.90;;;;;;4988203;28;20049;-71
2022/01/29 01:07:45;;;;;;;37.90;24.20;;;7.00;99.90;;;;;;4990493;28;20038;-72
2022/01/29 01:10:12;;;;;;;36.05;23.30;;;6.90;99.90;;;;;;4982024;28;20050;-71
2022/01/29 01:12:38;;;;;;;42.70;24.02;;;7.00;99.90;;;;;;4989880;28;20129;-72
2022/01/29 01:15:05;;;;;;;46.33;27.17;;;6.70;99.90;;;;;;4992217;28;20096;-72
2022/01/29 01:17:31;;;;;;;45.13;27.17;;;6.80;99.90;;;;;;4992555;28;20061;-72
2022/01/29 01:19:57;;;;;;;45.40;24.48;;;7.00;99.90;;;;;;5010077;28;20038;-72
2022/01/29 01:22:23;;;;;;;41.03;25.00;;;7.00;99.90;;;;;;4995364;28;20052;-72
2022/01/29 01:24:48;;;;;;;38.50;19.92;;;6.90;99.90;;;;;;4989875;28;20123;-71
2022/01/29 01:27:15;;;;;;;41.58;24.65;;;6.80;99.90;;;;;;4993157;28;20037;-72
2022/01/29 01:29:42;;;;;;;35.50;20.63;;;6.90;99.90;;;;;;4993093;28;20065;-72
2022/01/29 01:32:11;;;;;;;37.97;22.63;;;6.90;99.90;;;;;;4974169;28;20497;-72
2022/01/29 01:34:45;;;;;;;39.03;23.90;;;6.80;99.90;;;;;;4994008;28;20133;-71
2022/01/29 01:37:18;;;;;;;40.17;24.50;;;6.70;99.90;;;;;;4977704;28;20032;-72
2022/01/29 01:39:43;;;;;;;44.05;24.55;;;6.80;99.90;;;;;;4974720;28;20050;-72
2022/01/29 01:42:09;;;;;;;44.78;25.67;;;7.10;99.90;;;;;;4978521;28;20394;-72
2022/01/29 01:44:42;;;;;;;50.65;24.58;;;7.30;99.90;;;;;;4992560;28;20036;-72
2022/01/29 01:47:08;;;;;;;46.80;24.83;;;7.10;99.90;;;;;;4992334;28;20124;-72
2022/01/29 01:49:34;;;;;;;40.10;23.35;;;6.70;99.90;;;;;;4980041;28;20113;-72
2022/01/29 01:52:00;;;;;;;43.45;24.58;;;7.00;99.90;;;;;;4992461;28;20100;-72
2022/01/29 01:54:25;;;;;;;37.58;22.08;;;7.00;99.90;;;;;;4992231;28;20049;-72
2022/01/29 01:56:51;;;;;;;38.42;21.27;;;6.90;99.90;;;;;;4983739;28;20057;-72
2022/01/29 01:59:17;;;;;;;43.53;24.90;;;6.60;99.90;;;;;;4982503;28;20069;-72
2022/01/29 02:01:42;;;;;;;30.38;16.95;;;6.70;99.90;;;;;;4992164;28;20041;-72
2022/01/29 02:04:08;;;;;;;48.45;25.83;;;6.80;99.90;;;;;;4992765;28;20033;-72
2022/01/29 02:06:34;;;;;;;45.85;24.52;;;6.90;99.90;;;;;;4994142;28;20044;-71
2022/01/29 02:09:01;;;;;;;41.55;25.38;;;7.10;99.90;;;;;;4994116;28;20518;-71
2022/01/29 02:11:28;;;;;;;45.47;23.15;;;6.90;99.90;;;;;;4974042;28;20045;-72
2022/01/29 02:13:57;;;;;;;43.42;25.42;;;6.90;99.90;;;;;;4973875;28;20470;-71
2022/01/29 02:16:23;;;;;;;53.08;27.70;;;6.90;99.90;;;;;;4990629;28;20045;-71
2022/01/29 02:18:49;;;;;;;46.78;27.60;;;6.90;99.90;;;;;;4990175;28;20031;-72
2022/01/29 02:21:16;;;;;;;41.63;19.92;;;6.90;99.90;;;;;;4982713;28;20053;-71
2022/01/29 02:23:41;;;;;;;39.63;21.63;;;6.80;99.90;;;;;;4974816;28;20484;-71
2022/01/29 02:26:07;;;;;;;45.83;25.58;;;6.90;99.90;;;;;;4993338;28;20041;-71
2022/01/29 02:28:33;;;;;;;49.22;26.67;;;6.90;99.90;;;;;;4969498;28;20041;-71
2022/01/29 02:31:02;;;;;;;49.30;25.80;;;6.60;99.90;;;;;;4901752;28;20056;-71
2022/01/29 02:33:38;;;;;;;;;;;7.00;99.90;;;;;;60171;28;10022030;-71
2022/01/29 02:36:04;;;;;;;45.67;24.40;;;6.90;99.90;;;;;;5005777;28;19918;-71
2022/01/29 02:38:30;;;;;;;47.80;24.88;;;7.00;99.90;;;;;;5003796;28;20189;-71
2022/01/29 02:41:03;;;;;;;47.50;21.13;;;7.00;99.90;;;;;;4976607;28;20046;-71
2022/01/29 02:43:35;;;;;;;46.50;23.73;;;7.10;99.90;;;;;;4987537;28;20137;-71
2022/01/29 02:46:21;;;;;;;46.10;24.80;;;7.10;99.90;;;;;;4987912;28;20081;-71
2022/01/29 02:48:49;;;;;;;53.22;26.00;;;7.10;99.90;;;;;;4989928;28;20120;-71
2022/01/29 02:51:15;;;;;;;41.28;21.40;;;7.10;99.90;;;;;;4989833;28;20041;-71
2022/01/29 02:53:41;;;;;;;45.15;22.55;;;7.10;99.90;;;;;;4989885;28;20030;-72
2022/01/29 02:56:08;;;;;;;58.60;26.67;;;7.80;99.90;;;;;;4976506;28;20036;-70
2022/01/29 02:58:34;;;;;;;44.88;24.58;;;7.10;99.90;;;;;;4975310;28;20038;-72
2022/01/29 03:00:59;;;;;;;53.63;25.70;;;7.20;99.90;;;;;;4989708;28;20045;-72
2022/01/29 03:03:25;;;;;;;45.17;23.38;;;7.70;99.90;;;;;;4995980;28;20503;-72
2022/01/29 03:05:54;;;;;;;47.83;23.27;;;7.20;99.90;;;;;;4973213;28;20498;-72
2022/01/29 03:08:20;;;;;;;38.50;17.85;;;7.20;99.90;;;;;;5003245;28;20042;-72
2022/01/29 03:10:49;;;;;;;44.55;22.73;;;7.50;99.90;;;;;;4991231;28;20044;-72
2022/01/29 03:13:16;;;;;;;46.20;22.63;;;7.40;99.90;;;;;;4978862;28;20136;-71
2022/01/29 03:15:42;;;;;;;32.95;16.30;;;7.40;99.90;;;;;;4982560;28;20034;-71
2022/01/29 03:18:08;;;;;;;39.97;21.17;;;7.40;99.90;;;;;;4974551;28;20057;-72
2022/01/29 03:20:34;;;;;;;40.38;19.55;;;7.50;99.90;;;;;;4990016;28;20493;-71
2022/01/29 03:23:00;;;;;;;35.95;19.05;;;7.50;99.90;;;;;;4991643;28;20088;-71
2022/01/29 03:25:26;;;;;;;43.17;22.48;;;7.50;99.90;;;;;;5005080;28;20044;-71
2022/01/29 03:27:52;;;;;;;45.83;22.08;;;7.40;99.90;;;;;;4988697;28;20037;-71
2022/01/29 03:30:18;;;;;;;36.58;19.90;;;7.50;99.90;;;;;;4985732;28;20050;-71
2022/01/29 03:32:44;;;;;;;35.03;17.25;;;7.60;99.90;;;;;;4986889;28;20422;-71
2022/01/29 03:35:10;;;;;;;38.63;18.80;;;7.60;99.90;;;;;;4992197;28;20092;-71
2022/01/29 03:37:36;;;;;;;38.70;19.45;;;7.60;99.90;;;;;;4982290;28;20040;-71
2022/01/29 03:40:05;;;;;;;47.42;19.55;;;7.60;99.90;;;;;;4963038;28;20034;-71
2022/01/29 03:42:36;;;;;;;37.80;19.77;;;7.70;99.90;;;;;;4989848;28;20497;-71
2022/01/29 03:45:02;;;;;;;35.42;16.23;;;7.70;99.90;;;;;;4986315;28;20041;-71
2022/01/29 03:47:28;;;;;;;38.58;18.88;;;7.70;99.90;;;;;;4965596;28;20037;-71
2022/01/29 03:49:53;;;;;;;38.35;18.58;;;8.00;99.90;;;;;;4983602;28;20093;-71
2022/01/29 03:52:19;;;;;;;46.55;20.02;;;7.70;99.90;;;;;;4988856;28;20069;-72
2022/01/29 03:54:45;;;;;;;38.58;19.92;;;8.30;99.90;;;;;;4987196;28;20038;-72
2022/01/29 03:57:10;;;;;;;31.52;16.30;;;7.70;99.90;;;;;;5005371;28;20668;-72
2022/01/29 03:59:36;;;;;;;35.13;18.67;;;7.70;99.90;;;;;;4986539;28;20108;-72
2022/01/29 04:02:02;;;;;;;37.97;18.42;;;7.70;99.90;;;;;;4970821;28;20045;-72
2022/01/29 04:04:28;;;;;;;35.53;17.90;;;7.70;99.90;;;;;;4987972;28;20056;-72
2022/01/29 04:06:54;;;;;;;37.38;21.27;;;7.80;99.90;;;;;;4970963;28;20045;-72
2022/01/29 04:09:21;;;;;;;38.63;20.50;;;7.80;99.90;;;;;;4986145;28;20437;-72
2022/01/29 04:11:47;;;;;;;34.80;19.00;;;7.80;99.90;;;;;;4972183;28;20049;-72
2022/01/29 04:14:17;;;;;;;31.98;19.38;;;7.80;99.90;;;;;;4961685;28;20416;-72
2022/01/29 04:16:44;;;;;;;35.50;19.48;;;7.80;99.90;;;;;;4991886;28;20048;-72
2022/01/29 04:19:23;;;;;;;31.42;17.15;;;7.80;99.90;;;;;;3444575;28;10021560;-72
2022/01/29 04:21:49;;;;;;;32.38;19.75;;;7.80;99.90;;;;;;1719735;28;10001947;-71
2022/01/29 04:24:14;;;;;;;35.88;19.95;;;7.80;99.90;;;;;;4985284;28;20045;-71
2022/01/29 04:26:40;;;;;;;37.42;19.35;;;7.80;99.90;;;;;;4988556;28;20037;-71
2022/01/29 04:29:08;;;;;;;34.13;16.50;;;7.80;99.90;;;;;;4983852;28;20043;-71
2022/01/29 04:31:57;;;;;;;38.67;21.02;;;7.90;99.90;;;;;;4982296;28;20053;-71
2022/01/29 04:34:23;;;;;;;33.80;18.60;;;8.10;99.90;;;;;;5007958;28;20042;-71
2022/01/29 04:36:49;;;;;;;33.03;18.50;;;7.90;99.90;;;;;;4989181;28;20038;-71
2022/01/29 04:39:14;;;;;;;28.55;17.20;;;7.90;99.90;;;;;;4987021;28;20398;-72
2022/01/29 04:41:40;;;;;;;28.98;17.13;;;7.90;99.90;;;;;;4994004;28;20038;-72
2022/01/29 04:44:06;;;;;;;30.80;17.20;;;7.90;99.90;;;;;;4996143;28;20045;-72
2022/01/29 04:46:32;;;;;;;27.33;18.63;;;7.90;99.90;;;;;;4993808;28;20533;-72
2022/01/29 04:48:58;;;;;;;30.50;17.42;;;7.90;99.90;;;;;;4992179;28;20057;-72
2022/01/29 04:51:23;;;;;;;30.92;16.85;;;7.90;99.90;;;;;;4979222;28;20037;-72
2022/01/29 04:53:49;;;;;;;33.70;18.95;;;7.90;99.90;;;;;;4992534;28;20046;-72
2022/01/29 04:56:15;;;;;;;37.13;19.20;;;7.90;99.90;;;;;;4991114;28;20121;-72
2022/01/29 04:58:41;;;;;;;31.10;19.45;;;7.90;99.90;;;;;;4992465;28;20044;-72
2022/01/29 05:01:07;;;;;;;37.35;21.20;;;7.90;99.90;;;;;;4995341;28;20041;-72
2022/01/29 05:03:33;;;;;;;31.85;18.15;;;8.00;99.90;;;;;;5008661;28;20038;-72
2022/01/29 05:06:00;;;;;;;24.38;16.38;;;8.00;99.90;;;;;;4981184;28;20045;-72
2022/01/29 05:08:26;;;;;;;29.90;18.15;;;8.00;99.90;;;;;;4988831;28;20077;-72
2022/01/29 05:10:53;;;;;;;31.10;17.08;;;8.00;99.90;;;;;;5007939;28;20030;-72
2022/01/29 05:13:23;;;;;;;34.08;16.80;;;8.10;99.90;;;;;;4991224;28;20077;-72
2022/01/29 05:16:30;;;;;;;24.98;16.33;;;8.00;99.90;;;;;;4993254;28;20085;-72
2022/01/29 05:27:08;;;;;;;24.10;15.55;;;8.10;99.90;;;;;;4987386;28;20046;-72
2022/01/29 05:29:34;;;;;;;32.50;16.77;;;8.00;99.90;;;;;;4997056;28;20129;-72
2022/01/29 05:32:04;;;;;;;30.10;15.05;;;8.10;99.90;;;;;;5010011;28;20133;-72
2022/01/29 05:34:41;;;;;;;28.25;16.92;;;8.10;99.90;;;;;;4256317;28;10000843;-72
2022/01/29 05:37:06;;;;;;;28.75;16.95;;;8.20;99.90;;;;;;858851;28;10001959;-72
2022/01/29 05:39:32;;;;;;;26.83;15.55;;;8.30;99.90;;;;;;4986443;28;20049;-73
2022/01/29 05:41:59;;;;;;;27.17;14.90;;;8.20;99.90;;;;;;4988950;28;20060;-73
2022/01/29 05:44:25;;;;;;;31.02;16.67;;;8.60;99.90;;;;;;4992784;28;20033;-73
2022/01/29 05:46:51;;;;;;;25.05;16.10;;;8.40;99.90;;;;;;4979334;28;20053;-72
2022/01/29 05:49:17;;;;;;;27.20;15.35;;;8.10;99.90;;;;;;4991812;28;20033;-73
2022/01/29 05:51:42;;;;;;;31.42;16.10;;;8.00;99.90;;;;;;4993812;28;20472;-73
2022/01/29 05:54:08;;;;;;;28.80;16.48;;;8.20;99.90;;;;;;4993656;28;20046;-73
2022/01/29 05:56:34;;;;;;;25.40;14.07;;;8.20;99.90;;;;;;4995299;28;20113;-73
2022/01/29 05:59:00;;;;;;;25.70;13.98;;;8.20;99.90;;;;;;4989841;28;20044;-73
2022/01/29 06:01:26;;;;;;;29.75;14.32;;;8.60;99.90;;;;;;4994287;28;20054;-73
2022/01/29 06:03:52;;;;;;;31.33;14.85;;;8.30;99.90;;;;;;4991543;28;20377;-73
2022/01/29 06:06:18;;;;;;;27.50;15.05;;;8.30;99.90;;;;;;5008294;28;20060;-73
2022/01/29 06:08:43;;;;;;;25.15;14.15;;;8.10;99.90;;;;;;4991370;28;20041;-73
2022/01/29 06:11:09;;;;;;;23.77;14.38;;;8.20;99.90;;;;;;4990895;28;20409;-72
2022/01/29 06:13:35;;;;;;;30.05;14.70;;;8.30;99.90;;;;;;5012624;28;20038;-73
2022/01/29 06:16:01;;;;;;;24.42;13.77;;;8.30;99.90;;;;;;4979488;28;20087;-72
2022/01/29 06:18:28;;;;;;;21.05;10.45;;;8.60;99.90;;;;;;4993828;28;20045;-71
2022/01/29 06:21:03;;;;;;;27.75;14.65;;;8.40;99.90;;;;;;4977732;28;20406;-72
2022/01/29 06:23:31;;;;;;;24.52;12.38;;;8.80;99.90;;;;;;4994628;28;20041;-72
2022/01/29 06:26:06;;;;;;;21.48;13.28;;;8.50;99.90;;;;;;4742144;28;10001061;-71
2022/01/29 06:28:33;;;;;;;25.91;14.09;;;8.80;99.90;;;;;;170856;28;10002216;-71
2022/01/29 06:30:59;;;;;;;23.20;13.70;;;8.40;99.90;;;;;;4976640;28;20099;-71
2022/01/29 06:33:25;;;;;;;20.63;12.55;;;8.50;99.90;;;;;;4987589;28;23020;-72
2022/01/29 06:35:51;;;;;;;23.17;12.35;;;8.50;99.90;;;;;;4991836;28;20077;-71
2022/01/29 06:38:17;;;;;;;23.42;14.18;;;8.50;99.90;;;;;;5012336;28;20125;-72
2022/01/29 06:40:43;;;;;;;22.92;13.23;;;8.40;99.90;;;;;;4992874;28;20042;-72
2022/01/29 06:43:09;;;;;;;21.17;12.20;;;8.50;99.90;;;;;;4990985;28;20065;-72
2022/01/29 06:45:37;;;;;;;26.75;13.20;;;8.70;99.90;;;;;;4992097;28;20038;-72
2022/01/29 06:48:04;;;;;;;23.13;13.38;;;8.50;99.90;;;;;;4993604;28;20061;-73
2022/01/29 06:50:30;;;;;;;21.75;13.48;;;8.50;99.90;;;;;;4990359;28;20046;-73
2022/01/29 06:52:56;;;;;;;20.45;11.68;;;8.60;99.90;;;;;;4991409;28;20092;-73
2022/01/29 06:55:22;;;;;;;23.17;11.27;;;8.50;99.90;;;;;;4990625;28;20467;-73
2022/01/29 06:57:48;;;;;;;26.88;11.98;;;8.60;99.90;;;;;;4990971;28;20160;-73
2022/01/29 07:00:15;;;;;;;22.05;12.07;;;8.60;99.90;;;;;;4990662;28;20050;-73
2022/01/29 07:02:40;;;;;;;21.67;12.35;;;8.60;99.90;;;;;;5008317;28;20038;-72
2022/01/29 07:05:08;;;;;;;28.77;11.88;;;8.60;99.90;;;;;;4987930;28;20042;-72
2022/01/29 07:07:34;;;;;;;17.88;11.00;;;8.60;99.90;;;;;;4992113;28;20104;-73
2022/01/29 07:10:00;;;;;;;20.95;11.20;;;8.70;99.90;;;;;;4991640;28;20042;-73
2022/01/29 07:12:26;;;;;;;16.30;10.48;;;8.70;99.90;;;;;;4974543;28;20040;-73
2022/01/29 07:14:52;;;;;;;19.98;11.05;;;8.70;99.90;;;;;;4972732;28;20282;-73
2022/01/29 07:17:22;;;;;;;17.65;10.45;;;8.70;99.90;;;;;;4974898;28;20046;-73
2022/01/29 07:19:48;;;;;;;19.02;10.95;;;8.70;99.90;;;;;;4992019;28;20498;-71
2022/01/29 07:22:14;;;;;;;17.25;11.10;;;9.30;99.90;;;;;;4987539;28;20120;-72
2022/01/29 07:24:39;;;;;;;19.17;9.80;;;8.70;99.90;;;;;;4952085;28;20132;-71
2022/01/29 07:27:06;;;;;;;20.42;9.90;;;8.40;99.90;;;;;;4985549;28;20115;-72
2022/01/29 07:29:33;;;;;;;18.15;9.50;;;8.90;99.90;;;;;;4982862;28;20085;-72
2022/01/29 07:31:59;;;;;;;14.38;9.40;;;9.00;99.90;;;;;;4990131;28;20041;-73
2022/01/29 07:34:26;;;;;;;19.40;10.93;;;9.30;99.90;;;;;;4987649;28;20034;-72
2022/01/29 07:36:53;;;;;;;17.42;8.77;;;9.10;99.90;;;;;;4970581;28;20037;-73
2022/01/29 07:39:20;;;;;;;21.60;10.60;;;9.00;99.90;;;;;;4986058;28;20037;-72
2022/01/29 07:41:46;;;;;;;15.20;8.80;;;9.20;99.90;;;;;;4988553;28;20042;-72
2022/01/29 07:44:12;;;;;;;16.80;10.05;;;8.80;99.90;;;;;;4990488;28;20136;-71
2022/01/29 07:46:38;;;;;;;16.27;9.13;;;9.00;99.90;;;;;;4985834;28;20120;-72
2022/01/29 07:49:03;;;;;;;15.90;8.35;;;9.00;99.90;;;;;;4992484;28;20048;-73
2022/01/29 07:51:29;;;;;;;18.90;9.52;;;9.40;99.90;;;;;;4988058;28;20046;-72
2022/01/29 07:53:55;;;;;;;18.40;10.30;;;8.90;99.90;;;;;;4981265;28;20096;-71
2022/01/29 07:56:21;;;;;;;18.38;10.60;;;9.10;99.90;;;;;;4991259;28;20152;-71
2022/01/29 07:58:50;;;;;;;21.25;11.75;;;9.00;99.90;;;;;;4992250;28;20065;-71
2022/01/29 08:01:16;;;;;;;19.60;11.45;;;9.10;99.90;;;;;;4989473;28;20041;-71
2022/01/29 08:03:46;;;;;;;20.05;11.80;;;9.20;99.90;;;;;;4992730;28;20677;-73
2022/01/29 08:06:13;;;;;;;19.50;11.55;;;9.00;99.90;;;;;;5001506;28;20117;-73
2022/01/29 08:08:39;;;;;;;21.95;12.65;;;8.90;99.90;;;;;;4989573;28;20081;-71
2022/01/29 08:11:04;;;;;;;20.48;12.57;;;8.70;99.90;;;;;;4992078;28;20069;-72
2022/01/29 08:13:30;;;;;;;22.98;11.35;;;8.30;99.90;;;;;;4992714;28;20105;-72
2022/01/29 08:15:56;;;;;;;22.73;13.63;;;9.00;99.90;;;;;;4999317;28;20046;-71
2022/01/29 08:18:21;;;;;;;18.63;12.20;;;8.70;99.90;;;;;;4976899;28;20116;-71
2022/01/29 08:20:47;;;;;;;21.00;12.48;;;8.60;99.90;;;;;;4992066;28;20065;-71
2022/01/29 08:23:12;;;;;;;21.40;12.75;;;8.90;99.90;;;;;;4970131;28;20049;-71
2022/01/29 08:25:38;;;;;;;22.52;12.48;;;9.00;99.90;;;;;;4968058;28;20041;-71
2022/01/29 08:28:05;;;;;;;19.70;11.02;;;8.70;99.90;;;;;;4980022;28;20045;-72
2022/01/29 08:30:31;;;;;;;19.25;11.52;;;8.70;99.90;;;;;;4997801;28;20107;-72
2022/01/29 08:32:57;;;;;;;22.30;11.60;;;8.80;99.90;;;;;;4998941;28;20401;-71
2022/01/29 08:35:22;;;;;;;20.23;10.60;;;8.60;99.90;;;;;;4996173;28;20045;-71
2022/01/29 08:37:48;;;;;;;15.88;8.63;;;8.80;99.90;;;;;;4981713;28;20042;-71
2022/01/29 08:40:19;;;;;;;15.00;10.05;;;8.80;99.90;;;;;;3666195;28;10021656;-72
2022/01/29 08:42:44;;;;;;;19.50;10.80;;;9.40;99.90;;;;;;1203314;28;10002027;-71
2022/01/29 08:45:10;;;;;;;19.55;8.73;;;8.70;99.90;;;;;;4988157;28;20038;-72
2022/01/29 08:47:36;;;;;;;18.27;11.43;;;8.80;99.90;;;;;;4980766;28;20112;-72
2022/01/29 08:50:03;;;;;;;24.02;12.15;;;9.00;99.90;;;;;;4978562;28;20501;-72
2022/01/29 08:52:30;;;;;;;13.63;9.82;;;8.90;99.90;;;;;;4983753;28;20109;-72
2022/01/29 08:54:56;;;;;;;17.45;9.48;;;9.00;99.90;;;;;;4982260;28;20092;-72
2022/01/29 08:57:23;;;;;;;20.13;8.98;;;8.80;99.90;;;;;;4987752;28;20045;-72
2022/01/29 08:59:49;;;;;;;16.50;8.13;;;8.80;99.90;;;;;;4984552;28;20029;-72
2022/01/29 09:02:14;;;;;;;16.90;8.82;;;9.00;99.90;;;;;;4965511;28;20045;-73
2022/01/29 09:04:40;;;;;;;16.25;8.23;;;;;;;;;;4977949;28;20057;-72
2022/01/29 09:07:08;;;;;;;17.55;7.97;;;;;;;;;;4979017;28;20157;-72
2022/01/29 09:09:34;;;;;;;12.63;7.90;;;;;;;;;;4989452;28;20077;-72
2022/01/29 09:12:01;;;;;;;11.27;6.28;;;;;;;;;;4992592;28;20078;-72
2022/01/29 09:14:27;;;;;;;12.23;6.40;;;;;;;;;;4990473;28;20130;-72
2022/01/29 09:16:54;;;;;;;16.63;6.88;;;;;;;;;;4989452;28;20096;-72
2022/01/29 09:19:20;;;;;;;12.32;6.45;;;;;;;;;;4973161;28;21728;-72
2022/01/29 09:21:46;;;;;;;12.45;6.22;;;;;;;;;;4972895;28;22992;-72
2022/01/29 09:24:12;;;;;;;11.65;5.68;;;;;;;;;;5002360;28;20033;-72
2022/01/29 09:26:39;;;;;;;10.02;5.72;;;;;;;;;;4984862;28;20038;-72
2022/01/29 09:29:05;;;;;;;14.07;5.93;;;;;;;;;;4986962;28;20069;-72
2022/01/29 09:31:31;;;;;;;12.57;6.70;;;;;;;;;;4990242;28;20046;-72
2022/01/29 09:33:57;;;;;;;12.05;6.07;;;;;;;;;;5009510;28;20054;-72
2022/01/29 09:36:23;;;;;;;12.15;5.25;;;;;;;;;;4989448;28;20148;-72
2022/01/29 09:38:50;;;;;;;15.60;6.13;;;;;;;;;;4990733;28;21666;-72
2022/01/29 09:41:18;;;;;;;10.82;5.90;;;;;;;;;;4988714;28;20038;-72
2022/01/29 09:43:46;;;;;;;10.68;5.35;;;;;;;;;;4990813;28;20129;-72
2022/01/29 09:46:12;;;;;;;10.35;5.53;;;;;;;;;;4989560;28;20050;-71
2022/01/29 09:48:39;;;;;;;11.40;5.05;;;;;;;;;;4990331;28;20045;-71
2022/01/29 09:51:08;;;;;;;10.85;6.03;;;;;;;;;;4992510;28;20038;-72
2022/01/29 09:53:34;;;;;;;15.40;6.40;;;;;;;;;;4980792;28;20053;-72
2022/01/29 09:56:00;;;;;;;11.43;5.57;;;;;;;;;;4985917;28;20394;-72
2022/01/29 09:58:26;;;;;;;12.43;5.80;;;;;;;;;;4990370;28;20046;-72
2022/01/29 10:00:52;;;;;;;11.48;5.57;;;;;;;;;;4995164;28;20070;-73
2022/01/29 10:03:19;;;;;;;11.75;5.70;;;;;;;;;;5007006;28;20053;-72
2022/01/29 10:05:53;;;;;;;8.93;5.28;;;;;;;;;;4973006;28;20053;-72
2022/01/29 10:08:19;;;;;;;15.68;4.97;;;;;;;;;;4989370;28;20045;-72
2022/01/29 10:10:46;;;;;;;11.15;5.80;;;;;;;;;;4989614;28;20048;-72
2022/01/29 10:13:31;;;;;;;10.32;5.10;;;;;;;;;;4993133;28;20046;-73
2022/01/29 10:16:04;;;;;;;9.63;4.40;;;;;;;;;;4988145;28;20457;-73
2022/01/29 10:18:31;;;;;;;9.00;4.60;;;9.60;99.90;;;;;;4983592;28;20049;-73
2022/01/29 10:21:07;;;;;;;10.75;5.75;;;9.80;99.90;;;;;;4993940;28;20038;-72
2022/01/29 10:23:33;;;;;;;9.68;4.20;;;10.40;99.90;;;;;;4994637;28;20088;-72
2022/01/29 10:26:00;;;;;;;9.15;4.60;;;9.80;99.90;;;;;;4989930;28;20041;-72
2022/01/29 10:28:26;;;;;;;14.20;5.60;;;9.90;99.90;;;;;;4992221;28;20378;-73
2022/01/29 10:31:03;;;;;;;10.02;4.30;;;10.40;99.90;;;;;;4994628;28;20062;-72
2022/01/29 10:33:38;;;;;;;12.00;4.00;;;10.10;99.90;;;;;;5008647;28;20386;-72
2022/01/29 10:36:09;;;;;;;8.68;3.90;;;9.90;99.90;;;;;;4990803;28;20125;-72
2022/01/29 10:38:41;;;;;;;10.23;4.80;;;9.90;99.90;;;;;;4994196;28;20099;-72
2022/01/29 10:41:23;;;;;;;11.23;4.40;;;9.90;99.90;;;;;;4993878;28;20045;-73
2022/01/29 10:44:10;;;;;;;16.02;5.43;;;9.80;99.90;;;;;;4993060;28;20401;-71
2022/01/29 10:46:46;;;;;;;8.00;3.97;;;9.80;99.90;;;;;;4991464;28;20060;-71
2022/01/29 10:49:17;;;;;;;8.63;3.83;;;9.80;99.90;;;;;;4991270;28;20038;-72
2022/01/29 10:51:53;;;;;;;;;;;9.90;99.90;;;;;;4977580;28;20129;-72
2022/01/29 10:54:20;;;;;;;6.57;3.63;;;10.10;99.90;;;;;;4973386;28;19928;-72
2022/01/29 10:56:57;;;;;;;10.43;4.30;;;9.90;99.90;;;;;;4993852;28;20038;-71
2022/01/29 10:59:24;;;;;;;13.05;4.82;;;10.00;99.90;;;;;;4988304;28;20037;-73
2022/01/29 11:01:59;;;;;;;7.18;3.60;;;9.80;99.90;;;;;;4994017;28;20103;-74
2022/01/29 11:04:28;;;;;;;7.93;3.42;;;10.40;99.90;;;;;;4992186;28;20037;-71
2022/01/29 11:06:56;;;;;;;10.82;3.22;;;10.10;99.90;;;;;;4977492;28;20410;-73
2022/01/29 11:09:22;;;;;;;10.15;2.92;;;10.40;99.90;;;;;;4991639;28;20510;-73
2022/01/29 11:11:48;;;;;;;7.07;3.33;;;10.40;99.90;;;;;;4992588;28;20486;-73
2022/01/29 11:14:20;;;;;;;11.27;3.63;;;10.00;99.90;;;;;;4991625;28;20583;-74
2022/01/29 11:16:47;;;;;;;13.43;3.00;;;10.20;99.90;;;;;;4990128;28;20038;-73
2022/01/29 11:19:15;;;;;;;7.43;2.20;;;10.10;99.90;;;;;;4985726;28;20045;-74
2022/01/29 11:21:42;;;;;;;6.95;3.05;;;10.20;99.90;;;;;;5008551;28;20056;-74
2022/01/29 11:24:10;;;;;;;8.45;2.85;;;10.80;99.90;;;;;;4992710;28;20048;-75
2022/01/29 11:26:37;;;;;;;9.88;3.03;;;10.40;99.90;;;;;;4990298;28;20054;-74
2022/01/29 11:29:24;;;;;;;9.88;3.33;;;10.10;99.90;;;;;;4986864;28;20220;-73
2022/01/29 11:32:22;;;;;;;9.30;2.97;;;10.10;99.90;;;;;;4988238;28;20054;-74
2022/01/29 11:35:13;;;;;;;10.82;3.20;;;10.10;99.90;;;;;;4986460;28;20049;-74
2022/01/29 11:37:48;;;;;;;11.52;2.63;;;10.20;99.90;;;;;;4988732;28;20046;-73
2022/01/29 11:40:19;;;;;;;9.35;2.60;;;10.40;99.90;;;;;;5003446;28;20042;-74
2022/01/29 11:43:14;;;;;;;11.88;3.38;;;10.20;99.90;;;;;;4988413;28;20042;-74
2022/01/29 11:45:45;;;;;;;8.50;2.65;;;10.20;99.90;;;;;;4987656;28;20050;-74
2022/01/29 11:48:28;;;;;;;5.68;2.20;;;10.20;99.90;;;;;;4983892;28;20568;-75
2022/01/29 11:51:02;;;;;;;9.85;3.00;;;10.30;99.90;;;;;;4986750;28;20233;-75
2022/01/29 11:53:46;;;;;;;7.90;3.38;;;10.20;99.90;;;;;;4980261;28;20038;-74
2022/01/29 11:56:35;;;;;;;11.75;2.63;;;10.30;99.90;;;;;;4984032;28;20096;-73
2022/01/29 11:59:19;;;;;;;7.95;1.73;;;10.50;99.90;;;;;;4983541;28;20046;-74
2022/01/29 12:02:08;;;;;;;10.93;3.20;;;10.30;99.90;;;;;;4983610;28;20041;-74
2022/01/29 12:04:55;;;;;;;7.35;2.22;;;10.60;99.90;;;;;;5001381;28;20093;-74
2022/01/29 12:07:34;;;;;;;7.45;2.10;;;10.40;99.90;;;;;;4983359;28;20562;-75
2022/01/29 12:10:12;;;;;;;7.47;2.28;;;10.50;99.90;;;;;;4985853;28;20108;-74
2022/01/29 12:12:39;;;;;;;8.63;2.22;;;10.50;99.90;;;;;;4996997;28;20034;-75
2022/01/29 12:15:11;;;;;;;6.65;2.17;;;10.80;99.90;;;;;;4986099;28;20124;-74
2022/01/29 12:17:42;;;;;;;6.47;1.92;;;11.00;99.90;;;;;;4984535;28;20042;-74
2022/01/29 12:20:10;;;;;;;7.50;2.13;;;10.60;99.90;;;;;;4988809;28;20045;-75
2022/01/29 12:22:37;;;;;;;7.30;2.15;;;10.90;99.90;;;;;;4987736;28;20128;-74
2022/01/29 12:25:06;;;;;;;9.15;2.08;;;10.60;99.90;;;;;;4985204;28;20803;-76
2022/01/29 12:27:55;;;;;;;7.15;1.50;;;10.60;99.90;;;;;;4982924;28;20568;-75
2022/01/29 12:30:21;;;;;;;14.93;2.05;;;10.70;99.90;;;;;;4987756;28;20093;-75
2022/01/29 12:33:04;;;;;;;8.67;2.45;;;10.70;99.90;;;;;;1581775;28;10022510;-75
2022/01/29 12:35:34;;;;;;;7.15;1.90;;;10.70;99.90;;;;;;3602295;28;10001087;-75
2022/01/29 12:38:00;;;;;;;11.90;2.10;;;10.00;99.90;;;;;;5004071;28;20050;-75
2022/01/29 12:40:27;;;;;;;3.92;2.13;;;10.90;99.90;;;;;;4983951;28;20057;-74
2022/01/29 12:42:59;;;;;;;7.45;2.45;;;10.90;99.90;;;;;;4967581;28;20045;-75
2022/01/29 12:45:27;;;;;;;11.00;2.15;;;10.80;99.90;;;;;;4993982;28;20125;-75
2022/01/29 12:48:08;;;;;;;7.45;1.98;;;10.80;99.90;;;;;;4988377;28;20045;-75
2022/01/29 12:50:34;;;;;;;8.07;2.03;;;10.80;99.90;;;;;;4990629;28;20533;-74
2022/01/29 12:53:18;;;;;;;9.93;2.65;;;10.90;99.90;;;;;;4989955;28;20414;-74
2022/01/29 12:55:59;;;;;;;6.50;1.95;;;10.80;99.90;;;;;;4986977;28;20041;-74
2022/01/29 12:58:33;;;;;;;7.55;1.90;;;10.90;99.90;;;;;;4988048;28;20396;-76
2022/01/29 13:01:14;;;;;;;8.07;2.05;;;11.00;99.90;;;;;;5006100;28;20084;-76
2022/01/29 13:03:41;;;;;;;6.78;2.72;;;11.00;99.90;;;;;;4992622;28;20045;-76